Terminal Aerodrome Forecast
Issued by NWS

Home | Current Version | Previous Version | Text Only | Print | Product List | Glossary On
Versions: 1 2 3 4 5 6 7 8 9 10 11 12 13 14 15 16 17 18 19 20 21
915
FTUS46 KSTO 220537 CCB
TAFMHR
TAF COR
KMHR 220537Z 2206/2306 VRB05KT P6SM VCSH OVC100
      TEMPO 2206/2209 P6SM -SHRA BKN060
     FM220900 19007KT P6SM SCT050 SCT100
     FM221900 28008KT P6SM SCT030 BKN100
     FM230400 20008KT P6SM SKC=

USA.gov is the U.S. government's official web portal to all federal, state and local government web resources and services.